Time,TemperatureF,DewpointF,PressureIn,WindDirection,WindDirectionDegrees,WindSpeedMPH,WindSpeedGustMPH,Humidity,HourlyPrecipIn,Conditions,Clouds,dailyrainin,SoftwareType,DateUTC
2013-06-06 00:02:00,54.0,47.0,30.04,SSE,153,0.0,-999.0,78,-99.99,,,-99.99,,2013-06-06 05:02:00,
2013-06-06 00:12:00,54.0,47.0,30.04,SSE,153,0.0,-999.0,78,-99.99,,,-99.99,,2013-06-06 05:12:00,
2013-06-06 00:22:00,53.0,46.0,30.04,SSE,153,0.0,-999.0,77,-99.99,,,-99.99,,2013-06-06 05:22:00,
2013-06-06 00:32:00,52.0,46.0,30.04,SSE,153,0.0,-999.0,79,-99.99,,,-99.99,,2013-06-06 05:32:00,
2013-06-06 00:42:00,52.0,46.0,30.04,SSE,153,0.0,-999.0,79,-99.99,,,-99.99,,2013-06-06 05:42:00,
2013-06-06 00:52:00,52.0,46.0,30.04,SSE,153,0.0,-999.0,81,-99.99,,,-99.99,,2013-06-06 05:52:00,
2013-06-06 01:02:00,52.0,46.0,30.03,SSE,153,0.0,-999.0,81,-99.99,,,-99.99,,2013-06-06 06:02:00,
2013-06-06 01:12:00,52.0,46.0,30.03,SSE,153,0.0,-999.0,81,-99.99,,,-99.99,,2013-06-06 06:12:00,
2013-06-06 01:22:00,52.0,46.0,30.03,SSE,153,0.0,-999.0,81,-99.99,,,-99.99,,2013-06-06 06:22:00,
2013-06-06 01:32:00,51.0,46.0,30.04,SSE,153,0.0,-999.0,83,-99.99,,,-99.99,,2013-06-06 06:32:00,
2013-06-06 01:42:00,51.0,46.0,30.04,SSE,153,0.0,-999.0,83,-99.99,,,-99.99,,2013-06-06 06:42:00,
2013-06-06 01:52:00,51.0,46.0,30.03,SSE,153,0.0,-999.0,84,-99.99,,,-99.99,,2013-06-06 06:52:00,
2013-06-06 02:02:00,50.0,46.0,30.03,SSE,153,0.0,-999.0,85,-99.99,,,-99.99,,2013-06-06 07:02:00,
2013-06-06 02:12:00,50.0,46.0,30.03,SSE,153,0.0,-999.0,85,-99.99,,,-99.99,,2013-06-06 07:12:00,
2013-06-06 02:22:00,49.0,45.0,30.04,SSE,153,1.0,-999.0,87,-99.99,,,-99.99,,2013-06-06 07:22:00,
2013-06-06 02:32:00,49.0,46.0,30.04,SSE,153,2.0,-999.0,88,-99.99,,,-99.99,,2013-06-06 07:32:00,
2013-06-06 02:42:00,49.0,46.0,30.04,SSE,153,2.0,-999.0,88,-99.99,,,-99.99,,2013-06-06 07:42:00,
2013-06-06 02:52:00,49.0,46.0,30.03,SSE,156,2.0,-999.0,89,-99.99,,,-99.99,,2013-06-06 07:52:00,
2013-06-06 03:02:00,49.0,46.0,30.04,SSE,157,2.0,-999.0,89,-99.99,,,-99.99,,2013-06-06 08:02:00,
2013-06-06 03:12:00,49.0,46.0,30.04,SSE,157,2.0,-999.0,89,-99.99,,,-99.99,,2013-06-06 08:12:00,
2013-06-06 03:22:00,48.0,45.0,30.03,SSE,158,1.0,-999.0,89,-99.99,,,-99.99,,2013-06-06 08:22:00,
2013-06-06 03:32:00,48.0,45.0,30.03,SSE,157,0.0,-999.0,90,-99.99,,,-99.99,,2013-06-06 08:32:00,
2013-06-06 03:42:00,48.0,45.0,30.03,SSE,158,0.0,-999.0,90,-99.99,,,-99.99,,2013-06-06 08:42:00,
2013-06-06 03:52:00,48.0,45.0,30.03,SSE,158,0.0,-999.0,90,-99.99,,,-99.99,,2013-06-06 08:52:00,
2013-06-06 04:02:00,48.0,45.0,30.03,SSE,158,0.0,-999.0,91,-99.99,,,-99.99,,2013-06-06 09:02:00,
2013-06-06 04:12:00,48.0,45.0,30.03,SSE,158,0.0,-999.0,91,-99.99,,,-99.99,,2013-06-06 09:12:00,
2013-06-06 04:22:00,48.0,46.0,30.03,SSE,158,0.0,-999.0,92,-99.99,,,-99.99,,2013-06-06 09:22:00,
2013-06-06 04:33:00,47.0,45.0,30.03,SSE,157,0.0,-999.0,92,-99.99,,,-99.99,,2013-06-06 09:33:00,
2013-06-06 04:43:00,47.0,45.0,30.03,SSE,157,0.0,-999.0,92,-99.99,,,-99.99,,2013-06-06 09:43:00,
2013-06-06 04:53:00,47.0,45.0,30.03,SSE,157,0.0,-999.0,93,-99.99,,,-99.99,,2013-06-06 09:53:00,
2013-06-06 05:03:00,47.0,45.0,30.03,SSE,158,0.0,-999.0,93,-99.99,,,-99.99,,2013-06-06 10:03:00,
2013-06-06 05:12:00,47.0,45.0,30.03,SSE,158,0.0,-999.0,94,-99.99,,,-99.99,,2013-06-06 10:12:00,
2013-06-06 05:23:00,47.0,45.0,30.03,SSE,158,0.0,-999.0,94,-99.99,,,-99.99,,2013-06-06 10:23:00,
2013-06-06 05:33:00,46.0,44.0,30.03,SSE,158,0.0,-999.0,94,-99.99,,,-99.99,,2013-06-06 10:33:00,
2013-06-06 05:42:00,46.0,44.0,30.03,SSE,158,0.0,-999.0,94,-99.99,,,-99.99,,2013-06-06 10:42:00,
2013-06-06 05:52:00,46.0,44.0,30.02,SSE,157,0.0,-999.0,94,-99.99,,,-99.99,,2013-06-06 10:52:00,
2013-06-06 06:02:00,46.0,45.0,30.03,SSE,158,0.0,-999.0,95,-99.99,,,-99.99,,2013-06-06 11:02:00,
2013-06-06 06:12:00,46.0,45.0,30.03,SSE,158,0.0,-999.0,95,-99.99,,,-99.99,,2013-06-06 11:12:00,
2013-06-06 06:22:00,46.0,45.0,30.03,SSE,157,0.0,-999.0,95,-99.99,,,-99.99,,2013-06-06 11:22:00,
2013-06-06 06:32:00,46.0,45.0,30.03,SSE,158,0.0,-999.0,96,-99.99,,,-99.99,,2013-06-06 11:32:00,
2013-06-06 06:42:00,46.0,45.0,30.03,SSE,158,0.0,-999.0,96,-99.99,,,-99.99,,2013-06-06 11:42:00,
2013-06-06 06:52:00,47.0,46.0,30.03,SSE,158,0.0,-999.0,96,-99.99,,,-99.99,,2013-06-06 11:52:00,
2013-06-06 07:02:00,48.0,47.0,30.03,SSE,158,0.0,-999.0,96,-99.99,,,-99.99,,2013-06-06 12:02:00,
2013-06-06 07:12:00,48.0,47.0,30.03,SSE,158,0.0,-999.0,96,-99.99,,,-99.99,,2013-06-06 12:12:00,
2013-06-06 07:22:00,49.0,48.0,30.03,SSE,158,0.0,-999.0,96,-99.99,,,-99.99,,2013-06-06 12:22:00,
2013-06-06 07:33:00,51.0,50.0,30.03,SSE,157,0.0,-999.0,96,-99.99,,,-99.99,,2013-06-06 12:33:00,
2013-06-06 07:42:00,52.0,50.0,30.03,South,175,3.0,-999.0,94,-99.99,,,-99.99,,2013-06-06 12:42:00,
2013-06-06 07:53:00,52.0,50.0,30.03,South,175,3.0,-999.0,94,-99.99,,,-99.99,,2013-06-06 12:53:00,
2013-06-06 08:03:00,54.0,51.0,30.03,South,178,2.0,-999.0,91,-99.99,,,-99.99,,2013-06-06 13:03:00,
2013-06-06 08:12:00,54.0,51.0,30.03,South,178,2.0,-999.0,91,-99.99,,,-99.99,,2013-06-06 13:12:00,
2013-06-06 08:22:00,55.0,51.0,30.03,South,179,1.0,-999.0,85,-99.99,,,-99.99,,2013-06-06 13:22:00,
2013-06-06 08:32:00,56.0,51.0,30.03,South,179,1.0,-999.0,84,-99.99,,,-99.99,,2013-06-06 13:32:00,
2013-06-06 08:43:00,56.0,51.0,30.03,South,179,1.0,-999.0,84,-99.99,,,-99.99,,2013-06-06 13:43:00,
2013-06-06 08:53:00,59.0,53.0,30.03,South,179,0.0,-999.0,80,-99.99,,,-99.99,,2013-06-06 13:53:00,
2013-06-06 09:03:00,61.0,53.0,30.03,South,179,0.0,-999.0,75,-99.99,,,-99.99,,2013-06-06 14:03:00,
2013-06-06 09:12:00,61.0,53.0,30.03,South,179,0.0,-999.0,75,-99.99,,,-99.99,,2013-06-06 14:12:00,
2013-06-06 09:22:00,61.0,52.0,30.03,South,179,0.0,-999.0,73,-99.99,,,-99.99,,2013-06-06 14:22:00,
2013-06-06 09:33:00,62.0,51.0,30.03,South,179,0.0,-999.0,67,-99.99,,,-99.99,,2013-06-06 14:33:00,
2013-06-06 09:43:00,62.0,51.0,30.03,South,179,0.0,-999.0,67,-99.99,,,-99.99,,2013-06-06 14:43:00,
2013-06-06 09:53:00,62.0,52.0,30.03,South,179,1.0,-999.0,70,-99.99,,,-99.99,,2013-06-06 14:53:00,
2013-06-06 10:03:00,63.0,51.0,30.03,South,178,1.0,-999.0,65,-99.99,,,-99.99,,2013-06-06 15:03:00,
2013-06-06 10:13:00,63.0,51.0,30.03,South,178,1.0,-999.0,65,-99.99,,,-99.99,,2013-06-06 15:13:00,
2013-06-06 10:23:00,63.0,51.0,30.03,South,178,1.0,-999.0,65,-99.99,,,-99.99,,2013-06-06 15:23:00,
2013-06-06 10:33:00,65.0,53.0,30.03,South,178,1.0,-999.0,64,-99.99,,,-99.99,,2013-06-06 15:33:00,
2013-06-06 10:43:00,65.0,53.0,30.03,South,178,1.0,-999.0,64,-99.99,,,-99.99,,2013-06-06 15:43:00,
2013-06-06 10:53:00,65.0,51.0,30.03,South,180,1.0,-999.0,61,-99.99,,,-99.99,,2013-06-06 15:53:00,
2013-06-06 11:03:00,66.0,50.0,30.02,South,182,2.0,-999.0,56,-99.99,,,-99.99,,2013-06-06 16:03:00,
2013-06-06 11:12:00,66.0,50.0,30.02,South,182,2.0,-999.0,56,-99.99,,,-99.99,,2013-06-06 16:12:00,
2013-06-06 11:23:00,65.0,48.0,30.02,SSW,196,2.0,-999.0,55,-99.99,,,-99.99,,2013-06-06 16:23:00,
2013-06-06 11:33:00,66.0,49.0,30.02,South,190,4.0,-999.0,54,-99.99,,,-99.99,,2013-06-06 16:33:00,
2013-06-06 11:43:00,66.0,49.0,30.02,South,190,4.0,-999.0,54,-99.99,,,-99.99,,2013-06-06 16:43:00,
2013-06-06 11:53:00,66.0,49.0,30.02,South,185,3.0,-999.0,54,-99.99,,,-99.99,,2013-06-06 16:53:00,
2013-06-06 12:03:00,67.0,49.0,30.02,SSW,201,3.0,-999.0,52,-99.99,,,-99.99,,2013-06-06 17:03:00,
2013-06-06 12:13:00,67.0,48.0,30.02,South,178,4.0,-999.0,50,-99.99,,,-99.99,,2013-06-06 17:13:00,
2013-06-06 12:23:00,67.0,48.0,30.02,South,178,4.0,-999.0,50,-99.99,,,-99.99,,2013-06-06 17:23:00,
2013-06-06 12:33:00,68.0,48.0,30.01,SSE,157,2.0,-999.0,49,-99.99,,,-99.99,,2013-06-06 17:33:00,
2013-06-06 12:43:00,68.0,48.0,30.01,SSE,157,2.0,-999.0,49,-99.99,,,-99.99,,2013-06-06 17:43:00,
2013-06-06 12:53:00,67.0,46.0,30.01,SW,214,4.0,-999.0,47,-99.99,,,-99.99,,2013-06-06 17:53:00,
2013-06-06 13:03:00,69.0,51.0,30.01,SE,133,6.0,-999.0,52,-99.99,,,-99.99,,2013-06-06 18:03:00,
2013-06-06 13:13:00,69.0,51.0,30.01,SE,133,6.0,-999.0,52,-99.99,,,-99.99,,2013-06-06 18:13:00,
2013-06-06 13:23:00,67.0,48.0,30.01,SSE,159,5.0,-999.0,50,-99.99,,,-99.99,,2013-06-06 18:23:00,
2013-06-06 13:33:00,68.0,47.0,30.01,South,171,4.0,-999.0,47,-99.99,,,-99.99,,2013-06-06 18:33:00,
2013-06-06 13:43:00,68.0,47.0,30.01,South,171,4.0,-999.0,47,-99.99,,,-99.99,,2013-06-06 18:43:00,
2013-06-06 13:53:00,68.0,47.0,30.00,SE,137,5.0,-999.0,47,-99.99,,,-99.99,,2013-06-06 18:53:00,
2013-06-06 14:03:00,69.0,47.0,30.00,SSW,213,8.0,-999.0,45,-99.99,,,-99.99,,2013-06-06 19:03:00,
2013-06-06 14:12:00,69.0,47.0,30.00,SSW,213,8.0,-999.0,45,-99.99,,,-99.99,,2013-06-06 19:12:00,
2013-06-06 14:23:00,68.0,47.0,30.00,SSE,161,8.0,-999.0,47,-99.99,,,-99.99,,2013-06-06 19:23:00,
2013-06-06 14:33:00,69.0,48.0,29.99,SSE,163,6.0,-999.0,48,-99.99,,,-99.99,,2013-06-06 19:33:00,
2013-06-06 14:43:00,69.0,48.0,29.99,SSE,163,6.0,-999.0,48,-99.99,,,-99.99,,2013-06-06 19:43:00,
2013-06-06 14:53:00,69.0,48.0,29.98,SE,143,6.0,-999.0,48,-99.99,,,-99.99,,2013-06-06 19:53:00,
2013-06-06 15:03:00,70.0,48.0,29.98,SW,214,7.0,-999.0,46,-99.99,,,-99.99,,2013-06-06 20:03:00,
2013-06-06 15:13:00,70.0,48.0,29.98,SW,214,7.0,-999.0,46,-99.99,,,-99.99,,2013-06-06 20:13:00,
2013-06-06 15:23:00,68.0,47.0,29.98,SE,125,6.0,-999.0,47,-99.99,,,-99.99,,2013-06-06 20:23:00,
2013-06-06 15:33:00,68.0,48.0,29.98,SSE,156,8.0,-999.0,49,-99.99,,,-99.99,,2013-06-06 20:33:00,
2013-06-06 15:42:00,68.0,48.0,29.98,SSE,156,8.0,-999.0,49,-99.99,,,-99.99,,2013-06-06 20:42:00,
2013-06-06 15:53:00,70.0,47.0,29.97,SW,221,6.0,-999.0,44,-99.99,,,-99.99,,2013-06-06 20:53:00,
2013-06-06 16:03:00,69.0,47.0,29.97,SW,221,6.0,-999.0,46,-99.99,,,-99.99,,2013-06-06 21:03:00,
2013-06-06 16:13:00,69.0,47.0,29.97,SW,221,6.0,-999.0,46,-99.99,,,-99.99,,2013-06-06 21:13:00,
2013-06-06 16:23:00,70.0,49.0,29.97,South,173,7.0,-999.0,48,-99.99,,,-99.99,,2013-06-06 21:23:00,
2013-06-06 16:33:00,68.0,48.0,29.97,SSE,164,9.0,-999.0,49,-99.99,,,-99.99,,2013-06-06 21:33:00,
2013-06-06 16:43:00,68.0,48.0,29.97,SSE,164,9.0,-999.0,49,-99.99,,,-99.99,,2013-06-06 21:43:00,
2013-06-06 16:53:00,69.0,47.0,29.97,SSE,149,4.0,-999.0,46,-99.99,,,-99.99,,2013-06-06 21:53:00,
2013-06-06 17:03:00,69.0,48.0,29.96,SSW,210,4.0,-999.0,47,-99.99,,,-99.99,,2013-06-06 22:03:00,
2013-06-06 17:13:00,69.0,48.0,29.96,SSW,210,4.0,-999.0,47,-99.99,,,-99.99,,2013-06-06 22:13:00,
2013-06-06 17:23:00,69.0,45.0,29.96,WSW,239,6.0,-999.0,42,-99.99,,,-99.99,,2013-06-06 22:23:00,
2013-06-06 17:33:00,69.0,48.0,29.96,SSW,213,4.0,-999.0,47,-99.99,,,-99.99,,2013-06-06 22:33:00,
2013-06-06 17:43:00,69.0,48.0,29.96,SSW,213,4.0,-999.0,47,-99.99,,,-99.99,,2013-06-06 22:43:00,
2013-06-06 17:53:00,70.0,45.0,29.95,SW,234,6.0,-999.0,41,-99.99,,,-99.99,,2013-06-06 22:53:00,
2013-06-06 18:02:00,70.0,46.0,29.95,SSW,207,5.0,-999.0,42,-99.99,,,-99.99,,2013-06-06 23:02:00,
2013-06-06 18:12:00,70.0,46.0,29.95,SSW,207,5.0,-999.0,42,-99.99,,,-99.99,,2013-06-06 23:12:00,
2013-06-06 18:22:00,69.0,46.0,29.95,SW,215,7.0,-999.0,44,-99.99,,,-99.99,,2013-06-06 23:22:00,
2013-06-06 18:33:00,68.0,45.0,29.94,SSW,202,7.0,-999.0,44,-99.99,,,-99.99,,2013-06-06 23:33:00,
2013-06-06 18:42:00,68.0,45.0,29.94,SSW,202,7.0,-999.0,44,-99.99,,,-99.99,,2013-06-06 23:42:00,
2013-06-06 18:52:00,67.0,45.0,29.94,SW,221,6.0,-999.0,45,-99.99,,,-99.99,,2013-06-06 23:52:00,
2013-06-06 19:02:00,68.0,46.0,29.94,SSW,211,6.0,-999.0,45,-99.99,,,-99.99,,2013-06-07 00:02:00,
2013-06-06 19:12:00,68.0,46.0,29.94,SSW,211,6.0,-999.0,45,-99.99,,,-99.99,,2013-06-07 00:12:00,
2013-06-06 19:22:00,68.0,46.0,29.93,SSW,205,5.0,-999.0,46,-99.99,,,-99.99,,2013-06-07 00:22:00,
2013-06-06 19:32:00,68.0,47.0,29.93,SSW,213,7.0,-999.0,47,-99.99,,,-99.99,,2013-06-07 00:32:00,
2013-06-06 19:42:00,68.0,47.0,29.93,SSW,213,7.0,-999.0,47,-99.99,,,-99.99,,2013-06-07 00:42:00,
2013-06-06 19:52:00,68.0,46.0,29.93,SW,219,6.0,-999.0,45,-99.99,,,-99.99,,2013-06-07 00:52:00,
2013-06-06 20:02:00,68.0,48.0,29.93,SSW,210,5.0,-999.0,48,-99.99,,,-99.99,,2013-06-07 01:02:00,
2013-06-06 20:12:00,68.0,48.0,29.93,SSW,210,5.0,-999.0,48,-99.99,,,-99.99,,2013-06-07 01:12:00,
2013-06-06 20:22:00,67.0,49.0,29.92,SSW,210,4.0,-999.0,53,-99.99,,,-99.99,,2013-06-07 01:22:00,
2013-06-06 20:32:00,67.0,51.0,29.91,SSW,209,1.0,-999.0,57,-99.99,,,-99.99,,2013-06-07 01:32:00,
2013-06-06 20:42:00,67.0,51.0,29.91,SSW,209,1.0,-999.0,57,-99.99,,,-99.99,,2013-06-07 01:42:00,
2013-06-06 20:52:00,66.0,51.0,29.91,SSW,200,1.0,-999.0,59,-99.99,,,-99.99,,2013-06-07 01:52:00,
2013-06-06 21:02:00,64.0,51.0,29.91,SSW,199,1.0,-999.0,63,-99.99,,,-99.99,,2013-06-07 02:02:00,
2013-06-06 21:12:00,64.0,51.0,29.91,SSW,199,1.0,-999.0,63,-99.99,,,-99.99,,2013-06-07 02:12:00,
2013-06-06 21:22:00,64.0,52.0,29.90,SSW,199,2.0,-999.0,65,-99.99,,,-99.99,,2013-06-07 02:22:00,
2013-06-06 21:32:00,63.0,52.0,29.90,South,191,3.0,-999.0,67,-99.99,,,-99.99,,2013-06-07 02:32:00,
2013-06-06 21:42:00,63.0,52.0,29.90,South,191,3.0,-999.0,67,-99.99,,,-99.99,,2013-06-07 02:42:00,
2013-06-06 21:52:00,62.0,52.0,29.90,South,184,4.0,-999.0,70,-99.99,,,-99.99,,2013-06-07 02:52:00,
2013-06-06 22:02:00,61.0,51.0,29.90,South,175,4.0,-999.0,70,-99.99,,,-99.99,,2013-06-07 03:02:00,
2013-06-06 22:12:00,61.0,51.0,29.90,South,175,4.0,-999.0,70,-99.99,,,-99.99,,2013-06-07 03:12:00,
2013-06-06 22:22:00,61.0,51.0,29.90,SSE,167,5.0,-999.0,70,-99.99,,,-99.99,,2013-06-07 03:22:00,
2013-06-06 22:33:00,61.0,52.0,29.90,SSE,165,5.0,-999.0,72,-99.99,,,-99.99,,2013-06-07 03:33:00,
2013-06-06 22:43:00,61.0,52.0,29.90,SSE,165,5.0,-999.0,72,-99.99,,,-99.99,,2013-06-07 03:43:00,
2013-06-06 22:53:00,60.0,51.0,29.90,SSE,168,4.0,-999.0,71,-99.99,,,-99.99,,2013-06-07 03:53:00,
2013-06-06 23:03:00,60.0,51.0,29.90,South,172,5.0,-999.0,71,-99.99,,,-99.99,,2013-06-07 04:03:00,
2013-06-06 23:12:00,60.0,51.0,29.90,South,172,5.0,-999.0,71,-99.99,,,-99.99,,2013-06-07 04:12:00,
2013-06-06 23:23:00,60.0,51.0,29.90,South,175,5.0,-999.0,72,-99.99,,,-99.99,,2013-06-07 04:23:00,
2013-06-06 23:33:00,59.0,51.0,29.89,SSE,165,5.0,-999.0,75,-99.99,,,-99.99,,2013-06-07 04:33:00,
2013-06-06 23:42:00,59.0,51.0,29.89,SSE,165,5.0,-999.0,75,-99.99,,,-99.99,,2013-06-07 04:42:00,
2013-06-06 23:53:00,59.0,51.0,29.89,SSE,159,5.0,-999.0,74,-99.99,,,-99.99,,2013-06-07 04:53:00,